Time;durP1;ratioP1;P1;durP2;ratioP2;P2;SDS_P1;SDS_P2;PMS_P1;PMS_P2;Temp;Humidity;BMP_temperature;BMP_pressure;BME280_temperature;BME280_humidity;BME280_pressure;Samples;Min_cycle;Max_cycle;Signal;HPM_P1;HPM_P2
2023/04/13 00:00:36;;;;;;;0.52;0.40;;;;;;;;;;5014069;28;20084;-90
2023/04/13 00:03:03;;;;;;;1.25;0.32;;;;;;;;;;4996613;28;20061;-90
2023/04/13 00:05:33;;;;;;;2.03;0.55;;;;;;;;;;5013718;28;20050;-90
2023/04/13 00:08:01;;;;;;;0.40;0.40;;;;;;;;;;5013870;28;20058;-90
2023/04/13 00:10:34;;;;;;;1.23;0.50;;;;;;;;;;4996547;28;20050;-90
2023/04/13 00:13:03;;;;;;;1.27;0.40;;;;;;;;;;4996737;28;20597;-91
2023/04/13 00:15:33;;;;;;;0.30;0.30;;;;;;;;;;5013543;28;20132;-91
2023/04/13 00:18:00;;;;;;;3.10;0.90;;;;;;;;;;4996458;28;20053;-91
2023/04/13 00:20:28;;;;;;;0.40;0.40;;;;;;;;;;5013599;28;20548;-90
2023/04/13 00:22:56;;;;;;;1.23;0.60;;;;;;;;;;5013603;28;20505;-91
2023/04/13 00:25:23;;;;;;;1.85;0.40;;;;;;;;;;5013492;28;20056;-90
2023/04/13 00:27:53;;;;;;;2.30;0.57;;;;;;;;;;4996513;28;20068;-90
2023/04/13 00:30:21;;;;;;;0.40;0.40;;;;;;;;;;4996536;28;20478;-90
2023/04/13 00:32:49;;;;;;;0.43;0.43;;;;;;;;;;5013648;28;20148;-90
2023/04/13 00:35:23;;;;;;;1.05;0.75;;;;;;;;;;4996413;28;20124;-91
2023/04/13 00:37:52;;;;;;;1.88;0.82;;;;;;;;;;5014226;28;20124;-91
2023/04/13 00:40:19;;;;;;;1.10;0.93;;;;;;;;;;5000583;28;20053;-91
2023/04/13 00:42:48;;;;;;;0.85;0.70;;;;;;;;;;5000169;28;20132;-91
2023/04/13 00:45:16;;;;;;;2.03;0.70;;;;;;;;;;5000110;28;20561;-89
2023/04/13 00:47:47;;;;;;;2.70;0.80;;;;;;;;;;5017339;28;20046;-90
2023/04/13 00:50:19;;;;;;;0.70;0.70;;;;;;;;;;5000472;28;20406;-91
2023/04/13 00:52:47;;;;;;;0.70;0.70;;;;;;;;;;5017268;28;20092;-90
2023/04/13 00:55:19;;;;;;;0.82;0.50;;;;;;;;;;4999914;28;20056;-90
2023/04/13 00:57:51;;;;;;;0.70;0.70;;;;;;;;;;5017145;28;20056;-90
2023/04/13 01:00:19;;;;;;;0.68;0.68;;;;;;;;;;5000227;28;20049;-91
2023/04/13 01:02:47;;;;;;;2.10;0.90;;;;;;;;;;4999747;28;20054;-90
2023/04/13 01:05:15;;;;;;;3.92;0.93;;;;;;;;;;4999747;28;20042;-91
2023/04/13 01:07:46;;;;;;;3.00;0.68;;;;;;;;;;4999691;28;20088;-90
2023/04/13 01:10:27;;;;;;;0.85;0.80;;;;;;;;;;5016927;28;20042;-91
2023/04/13 01:12:55;;;;;;;1.30;0.90;;;;;;;;;;4999849;28;20049;-89
2023/04/13 01:15:26;;;;;;;4.40;0.90;;;;;;;;;;4999861;28;20050;-92
2023/04/13 01:17:56;;;;;;;2.05;0.90;;;;;;;;;;4999854;28;20056;-90
2023/04/13 01:20:25;;;;;;;0.77;0.77;;;;;;;;;;4999855;28;20045;-90
2023/04/13 01:22:54;;;;;;;0.70;0.70;;;;;;;;;;4999486;28;20042;-89
2023/04/13 01:25:21;;;;;;;1.40;0.60;;;;;;;;;;4999565;28;20050;-90
2023/04/13 01:27:58;;;;;;;0.70;0.70;;;;;;;;;;5016831;28;20072;-90
2023/04/13 01:30:27;;;;;;;1.75;0.73;;;;;;;;;;4999182;28;20140;-90
2023/04/13 01:32:55;;;;;;;1.23;1.13;;;;;;;;;;4999164;28;20137;-90
2023/04/13 01:35:24;;;;;;;1.58;0.90;;;;;;;;;;5016400;28;20169;-90
2023/04/13 01:37:52;;;;;;;1.75;0.73;;;;;;;;;;4999440;28;20060;-90
2023/04/13 01:40:22;;;;;;;4.28;0.80;;;;;;;;;;5017219;28;20052;-90
2023/04/13 01:42:49;;;;;;;2.40;0.95;;;;;;;;;;4999268;28;20410;-91
2023/04/13 01:45:19;;;;;;;0.95;0.95;;;;;;;;;;5016176;28;20056;-89
2023/04/13 01:47:54;;;;;;;0.90;0.70;;;;;;;;;;4999063;28;20050;-90
2023/04/13 01:50:25;;;;;;;2.08;0.80;;;;;;;;;;4998768;28;20506;-90
2023/04/13 01:52:54;;;;;;;1.75;0.80;;;;;;;;;;4998659;28;20136;-90
2023/04/13 01:55:24;;;;;;;0.77;0.70;;;;;;;;;;4998932;28;20057;-90
2023/04/13 01:57:53;;;;;;;0.80;0.80;;;;;;;;;;4999042;28;20046;-92
2023/04/13 02:00:20;;;;;;;1.55;1.00;;;;;;;;;;4998930;28;20422;-90
2023/04/13 02:02:47;;;;;;;2.00;1.13;;;;;;;;;;4998657;28;20141;-91
2023/04/13 02:05:15;;;;;;;2.47;1.00;;;;;;;;;;4998466;28;20413;-90
2023/04/13 02:07:46;;;;;;;2.80;1.30;;;;;;;;;;4998935;28;20411;-90
2023/04/13 02:10:15;;;;;;;1.45;1.45;;;;;;;;;;4998317;28;20133;-90
2023/04/13 02:12:42;;;;;;;2.45;1.23;;;;;;;;;;5000584;28;20053;-90
2023/04/13 02:15:09;;;;;;;1.88;1.35;;;;;;;;;;4998699;28;20054;-91
2023/04/13 02:17:36;;;;;;;2.97;1.80;;;;;;;;;;4998159;28;20068;-91
2023/04/13 02:20:11;;;;;;;1.42;1.42;;;;;;;;;;4998246;28;20049;-90
2023/04/13 02:22:40;;;;;;;4.25;1.20;;;;;;;;;;4998499;28;20096;-90
2023/04/13 02:25:09;;;;;;;1.20;1.10;;;;;;;;;;4998177;28;20150;-91
2023/04/13 02:27:38;;;;;;;1.20;1.10;;;;;;;;;;5014219;28;20414;-89
2023/04/13 02:30:06;;;;;;;5.32;1.23;;;;;;;;;;4998134;28;20062;-90
2023/04/13 02:32:38;;;;;;;1.40;1.30;;;;;;;;;;4998042;28;20049;-90
2023/04/13 02:35:08;;;;;;;3.17;1.58;;;;;;;;;;5015055;28;20042;-90
2023/04/13 02:37:38;;;;;;;3.80;1.70;;;;;;;;;;5015211;28;20050;-90
2023/04/13 02:40:08;;;;;;;5.28;1.30;;;;;;;;;;4997606;28;20053;-90
2023/04/13 02:42:36;;;;;;;2.40;1.00;;;;;;;;;;5014388;28;20050;-89
2023/04/13 02:45:03;;;;;;;1.48;0.80;;;;;;;;;;4997320;28;20054;-90
2023/04/13 02:47:32;;;;;;;1.30;1.15;;;;;;;;;;4997285;28;20046;-90
2023/04/13 02:50:02;;;;;;;1.05;0.60;;;;;;;;;;5015058;28;20052;-90
2023/04/13 02:52:30;;;;;;;1.20;1.20;;;;;;;;;;5014867;28;20109;-90
2023/04/13 02:54:57;;;;;;;1.00;1.00;;;;;;;;;;4997403;28;20045;-90
2023/04/13 02:57:25;;;;;;;0.98;0.85;;;;;;;;;;5014863;28;20049;-90
2023/04/13 02:59:52;;;;;;;1.42;0.93;;;;;;;;;;4997876;28;20076;-91
2023/04/13 03:02:20;;;;;;;1.50;1.10;;;;;;;;;;4997091;28;20128;-89
2023/04/13 03:04:47;;;;;;;3.35;1.13;;;;;;;;;;4997710;28;20155;-89
2023/04/13 03:07:15;;;;;;;1.33;0.90;;;;;;;;;;4997381;28;20056;-90
2023/04/13 03:09:43;;;;;;;1.42;1.35;;;;;;;;;;5014527;28;20473;-90
2023/04/13 03:12:11;;;;;;;3.60;1.33;;;;;;;;;;5014464;28;20056;-90
2023/04/13 03:14:38;;;;;;;3.03;1.00;;;;;;;;;;4997323;28;20065;-90
2023/04/13 03:17:06;;;;;;;2.03;1.20;;;;;;;;;;5014527;28;20121;-90
2023/04/13 03:19:34;;;;;;;1.38;1.25;;;;;;;;;;4997563;28;20053;-90
2023/04/13 03:22:02;;;;;;;1.52;1.20;;;;;;;;;;4997445;28;20119;-90
2023/04/13 03:24:29;;;;;;;1.40;1.30;;;;;;;;;;4996695;28;20562;-90
2023/04/13 03:26:57;;;;;;;2.67;1.52;;;;;;;;;;5014483;28;20050;-90
2023/04/13 03:29:24;;;;;;;7.63;1.73;;;;;;;;;;4997053;28;20142;-90
2023/04/13 03:31:52;;;;;;;1.67;1.58;;;;;;;;;;4997384;28;20057;-90
2023/04/13 03:34:19;;;;;;;1.75;1.65;;;;;;;;;;4997105;28;20053;-90
2023/04/13 03:36:47;;;;;;;3.33;2.50;;;;;;;;;;4996972;28;20060;-90
2023/04/13 03:39:14;;;;;;;7.97;3.63;;;;;;;;;;4997183;28;20054;-91
2023/04/13 03:41:42;;;;;;;5.30;3.75;;;;;;;;;;4996927;28;20245;-90
2023/04/13 03:44:09;;;;;;;5.85;3.75;;;;;;;;;;4996926;28;20121;-90
2023/04/13 03:46:36;;;;;;;5.72;4.53;;;;;;;;;;4996678;28;20518;-91
2023/04/13 03:49:06;;;;;;;5.75;3.00;;;;;;;;;;4996763;28;20379;-90
2023/04/13 03:51:34;;;;;;;4.43;2.97;;;;;;;;;;4996616;28;20093;-90
2023/04/13 03:54:01;;;;;;;3.83;3.53;;;;;;;;;;4996551;28;20052;-91
2023/04/13 03:56:29;;;;;;;4.45;3.50;;;;;;;;;;4996508;28;20081;-90
2023/04/13 03:58:57;;;;;;;6.95;3.95;;;;;;;;;;4996831;28;20053;-91
2023/04/13 04:01:26;;;;;;;4.40;4.00;;;;;;;;;;4996455;28;20136;-90
2023/04/13 04:03:55;;;;;;;6.80;4.53;;;;;;;;;;4996344;28;20058;-90
2023/04/13 04:06:25;;;;;;;7.07;4.05;;;;;;;;;;4996604;28;20049;-91
2023/04/13 04:08:53;;;;;;;5.32;4.18;;;;;;;;;;4996894;28;20498;-90
2023/04/13 04:11:21;;;;;;;4.28;3.78;;;;;;;;;;4996192;28;20085;-90
2023/04/13 04:13:48;;;;;;;6.38;4.95;;;;;;;;;;4996389;28;20053;-90
2023/04/13 04:16:16;;;;;;;5.53;5.03;;;;;;;;;;4996105;28;20049;-89
2023/04/13 04:18:44;;;;;;;5.10;4.20;;;;;;;;;;4996202;28;20116;-90
2023/04/13 04:21:12;;;;;;;4.80;4.40;;;;;;;;;;4996553;28;20049;-90
2023/04/13 04:23:39;;;;;;;7.28;4.20;;;;;;;;;;4996177;28;20433;-90
2023/04/13 04:26:06;;;;;;;6.28;3.72;;;;;;;;;;4996507;28;20050;-88
2023/04/13 04:28:40;;;;;;;5.80;4.13;;;;;;;;;;5013256;28;20052;-90
2023/04/13 04:31:11;;;;;;;6.45;3.88;;;;;;;;;;4996323;28;20119;-90
2023/04/13 04:33:38;;;;;;;4.45;3.58;;;;;;;;;;4996498;28;20061;-91
2023/04/13 04:36:07;;;;;;;5.43;3.72;;;;;;;;;;4996022;28;20046;-90
2023/04/13 04:38:34;;;;;;;6.85;3.15;;;;;;;;;;4996090;28;20077;-90
2023/04/13 04:41:02;;;;;;;9.25;3.10;;;;;;;;;;4996334;28;20045;-90
2023/04/13 04:43:29;;;;;;;12.13;3.72;;;;;;;;;;4996144;28;20080;-90
2023/04/13 04:45:56;;;;;;;10.80;4.75;;;;;;;;;;4995922;28;20060;-91
2023/04/13 04:48:25;;;;;;;11.50;4.38;;;;;;;;;;4996368;28;20501;-91
2023/04/13 04:50:54;;;;;;;9.63;4.35;;;;;;;;;;4996013;28;20065;-90
2023/04/13 04:53:22;;;;;;;6.30;4.03;;;;;;;;;;4996034;28;20553;-91
2023/04/13 04:55:50;;;;;;;4.53;4.10;;;;;;;;;;4995880;28;20049;-88
2023/04/13 04:58:20;;;;;;;6.28;4.32;;;;;;;;;;4995735;28;20409;-90
2023/04/13 05:00:48;;;;;;;7.30;3.97;;;;;;;;;;4995742;28;20104;-88
2023/04/13 05:03:15;;;;;;;3.78;3.47;;;;;;;;;;4996059;28;20474;-88
2023/04/13 05:05:43;;;;;;;4.97;2.50;;;;;;;;;;4994634;28;20064;-89
2023/04/13 05:08:10;;;;;;;3.42;2.30;;;;;;;;;;4995920;28;20137;-91
2023/04/13 05:10:42;;;;;;;5.20;1.92;;;;;;;;;;4995664;28;20136;-87
2023/04/13 05:13:10;;;;;;;4.40;2.35;;;;;;;;;;4995568;28;20506;-89
2023/04/13 05:15:37;;;;;;;1.48;1.10;;;;;;;;;;4995858;28;20432;-89
2023/04/13 05:18:04;;;;;;;3.50;1.10;;;;;;;;;;4995659;28;20045;-87
2023/04/13 05:20:34;;;;;;;4.15;1.30;;;;;;;;;;5013131;28;20046;-90
2023/04/13 05:23:02;;;;;;;2.15;1.13;;;;;;;;;;4995588;28;20046;-92
2023/04/13 05:25:29;;;;;;;3.40;1.38;;;;;;;;;;4998601;28;20060;-89
2023/04/13 05:27:57;;;;;;;12.05;1.60;;;;;;;;;;4999651;28;20049;-91
2023/04/13 05:30:24;;;;;;;5.28;1.10;;;;;;;;;;4998725;28;20498;-87
2023/04/13 05:32:52;;;;;;;2.80;1.05;;;;;;;;;;5016651;28;20068;-91
2023/04/13 05:35:19;;;;;;;4.63;0.70;;;;;;;;;;4998920;28;20076;-91
2023/04/13 05:37:49;;;;;;;6.63;2.88;;;;;;;;;;4999409;28;20049;-89
2023/04/13 05:40:17;;;;;;;1.83;1.00;;;;;;;;;;4999100;28;20132;-89
2023/04/13 05:42:45;;;;;;;2.55;1.40;;;;;;;;;;4999331;28;20042;-92
2023/04/13 05:45:15;;;;;;;2.45;0.88;;;;;;;;;;4998665;28;20054;-90
2023/04/13 05:47:44;;;;;;;12.40;7.35;;;;;;;;;;4999005;28;20058;-87
2023/04/13 05:50:11;;;;;;;21.77;11.02;;;;;;;;;;4998640;28;20054;-90
2023/04/13 05:52:39;;;;;;;14.88;6.35;;;;;;;;;;5016020;28;20042;-90
2023/04/13 05:55:06;;;;;;;5.07;0.88;;;;;;;;;;4998975;28;20069;-90
2023/04/13 05:57:33;;;;;;;11.85;7.05;;;;;;;;;;5016190;28;20445;-89
2023/04/13 06:00:00;;;;;;;2.47;0.85;;;;;;;;;;5015876;28;20060;-92
2023/04/13 06:02:30;;;;;;;3.28;0.90;;;;;;;;;;5016189;28;20494;-90
2023/04/13 06:04:57;;;;;;;3.40;0.95;;;;;;;;;;4998414;28;20050;-88
2023/04/13 06:07:25;;;;;;;3.75;1.17;;;;;;;;;;4999127;28;20049;-90
2023/04/13 06:09:52;;;;;;;2.47;1.13;;;;;;;;;;4998592;28;20056;-91
2023/04/13 06:12:19;;;;;;;3.10;0.88;;;;;;;;;;4998671;28;20081;-89
2023/04/13 06:14:46;;;;;;;2.70;0.95;;;;;;;;;;5015659;28;20061;-91
2023/04/13 06:17:14;;;;;;;1.23;0.90;;;;;;;;;;4998647;28;20050;-89
2023/04/13 06:19:41;;;;;;;3.08;1.65;;;;;;;;;;4998683;28;20061;-92
2023/04/13 06:22:09;;;;;;;5.65;1.42;;;;;;;;;;5015709;28;20048;-92
2023/04/13 06:24:36;;;;;;;2.15;0.73;;;;;;;;;;4998338;28;20045;-89
2023/04/13 06:27:03;;;;;;;2.55;0.60;;;;;;;;;;4998697;28;20521;-91
2023/04/13 06:29:30;;;;;;;2.17;1.15;;;;;;;;;;4998076;28;20062;-92
2023/04/13 06:31:57;;;;;;;3.85;0.63;;;;;;;;;;4998012;28;20054;-89
2023/04/13 06:34:25;;;;;;;2.70;0.90;;;;;;;;;;5015417;28;20054;-90
2023/04/13 06:36:52;;;;;;;2.88;0.77;;;;;;;;;;4997372;28;20301;-89
2023/04/13 06:39:20;;;;;;;3.05;1.25;;;;;;;;;;4998059;28;20054;-90
2023/04/13 06:41:47;;;;;;;2.67;0.70;;;;;;;;;;4998317;28;20049;-89
2023/04/13 06:44:14;;;;;;;2.95;1.00;;;;;;;;;;4997852;28;20486;-89
2023/04/13 06:46:42;;;;;;;0.85;0.65;;;;;;;;;;5015163;28;20058;-91
2023/04/13 06:49:09;;;;;;;2.33;0.47;;;;;;;;;;4997986;28;20525;-90
2023/04/13 06:51:37;;;;;;;4.10;0.70;;;;;;;;;;5014990;28;20060;-89
2023/04/13 06:54:04;;;;;;;2.85;0.80;;;;;;;;;;4999793;28;20046;-91
2023/04/13 06:56:31;;;;;;;1.75;0.57;;;;;;;;;;4998482;28;20073;-92
2023/04/13 06:59:00;;;;;;;4.22;0.63;;;;;;;;;;5015230;28;20057;-89
2023/04/13 07:01:29;;;;;;;2.67;0.88;;;;;;;;;;5015003;28;20053;-92
2023/04/13 07:03:57;;;;;;;1.38;0.75;;;;;;;;;;5015507;28;20056;-92
2023/04/13 07:06:25;;;;;;;4.00;0.60;;;;;;;;;;4998593;28;20093;-91
2023/04/13 07:08:52;;;;;;;3.13;0.60;;;;;;;;;;4998323;28;20052;-92
2023/04/13 07:11:19;;;;;;;2.45;0.63;;;;;;;;;;4997395;28;20049;-89
2023/04/13 07:13:47;;;;;;;1.20;0.77;;;;;;;;;;5014783;28;20147;-92
2023/04/13 07:16:14;;;;;;;1.17;0.60;;;;;;;;;;5014726;28;20144;-90
2023/04/13 07:18:42;;;;;;;3.83;0.85;;;;;;;;;;4998157;28;20069;-92
2023/04/13 07:21:09;;;;;;;2.90;0.90;;;;;;;;;;4997512;28;20410;-92
2023/04/13 07:23:37;;;;;;;9.85;1.13;;;;;;;;;;4997329;28;20056;-92
2023/04/13 07:26:06;;;;;;;1.63;0.85;;;;;;;;;;4997072;28;20056;-89
2023/04/13 07:28:33;;;;;;;3.55;0.95;;;;;;;;;;4997672;28;20454;-93
2023/04/13 07:31:02;;;;;;;2.78;0.73;;;;;;;;;;4997198;28;20515;-90
2023/04/13 07:33:30;;;;;;;3.25;0.80;;;;;;;;;;4997544;28;20046;-92
2023/04/13 07:35:57;;;;;;;2.10;0.90;;;;;;;;;;4997238;28;20049;-92
2023/04/13 07:38:25;;;;;;;3.08;0.70;;;;;;;;;;4997495;28;20059;-91
2023/04/13 07:40:52;;;;;;;3.92;0.90;;;;;;;;;;4997079;28;20081;-89
2023/04/13 07:43:20;;;;;;;3.92;0.82;;;;;;;;;;4997399;28;20050;-90
2023/04/13 07:45:47;;;;;;;6.57;1.10;;;;;;;;;;4997043;28;20073;-91
2023/04/13 07:48:14;;;;;;;4.47;1.00;;;;;;;;;;4996688;28;20128;-88
2023/04/13 07:50:42;;;;;;;6.05;0.98;;;;;;;;;;4996911;28;20046;-89
2023/04/13 07:53:10;;;;;;;1.80;0.60;;;;;;;;;;4996723;28;20137;-88
2023/04/13 07:55:37;;;;;;;4.65;1.00;;;;;;;;;;4996649;28;20073;-91
2023/04/13 07:58:04;;;;;;;4.15;1.20;;;;;;;;;;4997396;28;20060;-92
2023/04/13 08:00:31;;;;;;;5.15;0.82;;;;;;;;;;5014302;28;20140;-90
2023/04/13 08:02:59;;;;;;;4.13;0.60;;;;;;;;;;5014084;28;20049;-90
2023/04/13 08:05:27;;;;;;;9.02;1.02;;;;;;;;;;5013873;28;20065;-89
2023/04/13 08:07:54;;;;;;;6.32;1.00;;;;;;;;;;5013683;28;20085;-93
2023/04/13 08:10:24;;;;;;;3.97;0.80;;;;;;;;;;5014001;28;20237;-89
2023/04/13 08:12:52;;;;;;;3.20;1.10;;;;;;;;;;4997172;28;20049;-86
2023/04/13 08:15:19;;;;;;;3.95;0.80;;;;;;;;;;4996694;28;20077;-89
2023/04/13 08:17:46;;;;;;;4.75;0.80;;;;;;;;;;5013738;28;20053;-90
2023/04/13 08:20:14;;;;;;;5.47;1.15;;;;;;;;;;5013798;28;20109;-87
2023/04/13 08:22:41;;;;;;;5.05;0.80;;;;;;;;;;4996780;28;20129;-92
2023/04/13 08:25:09;;;;;;;4.90;0.85;;;;;;;;;;4996567;28;20078;-88
2023/04/13 08:27:36;;;;;;;3.17;0.95;;;;;;;;;;5013486;28;20081;-90
2023/04/13 08:30:06;;;;;;;1.52;0.60;;;;;;;;;;4996572;28;20068;-89
2023/04/13 08:32:33;;;;;;;6.93;0.95;;;;;;;;;;5013993;28;20072;-89
2023/04/13 08:35:05;;;;;;;5.90;0.70;;;;;;;;;;4996156;28;20046;-89
2023/04/13 08:37:33;;;;;;;4.00;0.80;;;;;;;;;;4996885;28;20049;-90
2023/04/13 08:40:01;;;;;;;3.63;0.60;;;;;;;;;;5013267;28;20498;-89
2023/04/13 08:42:29;;;;;;;3.40;0.75;;;;;;;;;;5012074;28;20414;-90
2023/04/13 08:45:00;;;;;;;3.50;1.13;;;;;;;;;;4996392;28;20049;-89
2023/04/13 08:47:28;;;;;;;1.40;0.65;;;;;;;;;;4996016;28;20081;-90
2023/04/13 08:49:59;;;;;;;2.50;0.85;;;;;;;;;;4996222;28;20053;-91
2023/04/13 08:52:27;;;;;;;6.13;3.35;;;;;;;;;;4995497;28;20129;-91
2023/04/13 08:54:55;;;;;;;6.40;0.80;;;;;;;;;;4998968;28;20085;-91
2023/04/13 08:57:22;;;;;;;2.45;0.80;;;;;;;;;;4996403;28;20054;-93
2023/04/13 08:59:51;;;;;;;5.70;1.17;;;;;;;;;;4998761;28;20050;-88
2023/04/13 09:02:25;;;;;;;5.45;1.10;;;;;;;;;;4999928;28;20056;-94
2023/04/13 09:04:53;;;;;;;2.40;1.10;;;;;;;;;;5000227;28;20042;-90
2023/04/13 09:07:25;;;;;;;2.75;0.80;;;;;;;;;;5000601;28;20050;-94
2023/04/13 09:09:56;;;;;;;3.40;0.90;;;;;;;;;;4999840;28;20545;-90
2023/04/13 09:12:24;;;;;;;1.50;0.85;;;;;;;;;;4999779;28;20058;-91
2023/04/13 09:14:52;;;;;;;1.98;0.68;;;;;;;;;;5000121;28;20053;-92
2023/04/13 09:17:25;;;;;;;2.50;0.77;;;;;;;;;;5016933;28;20565;-92
2023/04/13 09:19:57;;;;;;;4.40;1.15;;;;;;;;;;5000062;28;20129;-93
2023/04/13 09:22:24;;;;;;;5.63;1.17;;;;;;;;;;4999927;28;20558;-88
2023/04/13 09:24:52;;;;;;;4.13;1.33;;;;;;;;;;4999503;28;20086;-93
2023/04/13 09:27:20;;;;;;;2.47;0.68;;;;;;;;;;5000174;28;20057;-91
2023/04/13 09:29:51;;;;;;;1.90;0.70;;;;;;;;;;5000409;28;20495;-93
2023/04/13 09:32:21;;;;;;;1.63;0.70;;;;;;;;;;4999774;28;20049;-91
2023/04/13 09:35:07;;;;;;;3.47;1.00;;;;;;;;;;4999759;28;20112;-90
2023/04/13 09:37:35;;;;;;;6.32;0.85;;;;;;;;;;4999302;28;20076;-91
2023/04/13 09:40:10;;;;;;;5.85;0.90;;;;;;;;;;4999475;28;20089;-90
2023/04/13 09:42:38;;;;;;;3.78;0.90;;;;;;;;;;4999005;28;20484;-90
2023/04/13 09:45:05;;;;;;;4.95;0.85;;;;;;;;;;4999030;28;20490;-93
2023/04/13 09:47:39;;;;;;;2.83;0.65;;;;;;;;;;5016193;28;20111;-90
2023/04/13 09:50:25;;;;;;;4.95;1.10;;;;;;;;;;4999170;28;20057;-89
2023/04/13 09:52:59;;;;;;;3.20;0.70;;;;;;;;;;4999330;28;20050;-92
2023/04/13 09:55:27;;;;;;;7.78;1.10;;;;;;;;;;4998900;28;20053;-90
2023/04/13 09:57:55;;;;;;;2.63;1.10;;;;;;;;;;4997484;28;20038;-89
2023/04/13 10:00:22;;;;;;;4.50;0.80;;;;;;;;;;4997385;28;20072;-89
2023/04/13 10:02:50;;;;;;;3.83;0.90;;;;;;;;;;4997337;28;20057;-90
2023/04/13 10:05:18;;;;;;;6.57;1.05;;;;;;;;;;5014359;28;20042;-91
2023/04/13 10:07:46;;;;;;;3.40;1.20;;;;;;;;;;4996784;28;20100;-92
2023/04/13 10:10:13;;;;;;;4.72;0.80;;;;;;;;;;4997104;28;20050;-89
2023/04/13 10:12:47;;;;;;;5.72;1.05;;;;;;;;;;4999244;28;20050;-92
2023/04/13 10:15:21;;;;;;;6.97;0.98;;;;;;;;;;5016193;28;20418;-92
2023/04/13 10:18:01;;;;;;;6.30;0.95;;;;;;;;;;5016231;28;20082;-89
2023/04/13 10:20:29;;;;;;;2.70;0.90;;;;;;;;;;5015858;28;20045;-92
2023/04/13 10:22:56;;;;;;;4.10;0.80;;;;;;;;;;4998523;28;20050;-91
2023/04/13 10:25:24;;;;;;;2.58;0.88;;;;;;;;;;4998931;28;20149;-88
2023/04/13 10:28:00;;;;;;;5.05;0.68;;;;;;;;;;5000384;28;20132;-92
2023/04/13 10:30:28;;;;;;;4.80;0.95;;;;;;;;;;5016146;28;20104;-90
2023/04/13 10:33:04;;;;;;;5.10;1.10;;;;;;;;;;4998835;28;20054;-90
2023/04/13 10:35:35;;;;;;;6.25;1.10;;;;;;;;;;4999143;28;20550;-93
2023/04/13 10:38:03;;;;;;;6.38;1.02;;;;;;;;;;4998906;28;20402;-92
2023/04/13 10:40:41;;;;;;;3.90;1.02;;;;;;;;;;4998303;28;20088;-91
2023/04/13 10:43:08;;;;;;;7.80;1.17;;;;;;;;;;4998311;28;20136;-89
2023/04/13 10:45:36;;;;;;;3.20;1.00;;;;;;;;;;4998165;28;20045;-89
2023/04/13 10:48:05;;;;;;;4.10;0.93;;;;;;;;;;5015540;28;20046;-90
2023/04/13 10:50:32;;;;;;;3.72;0.90;;;;;;;;;;4998223;28;20057;-88
2023/04/13 10:53:03;;;;;;;5.50;1.02;;;;;;;;;;4998740;28;20137;-89
2023/04/13 10:55:30;;;;;;;1.80;0.90;;;;;;;;;;4998152;28;20050;-89
2023/04/13 10:57:58;;;;;;;3.22;0.88;;;;;;;;;;5015260;28;20513;-93
2023/04/13 11:00:26;;;;;;;4.55;0.80;;;;;;;;;;4998126;28;20414;-88
2023/04/13 11:03:10;;;;;;;3.22;0.60;;;;;;;;;;5000183;28;20072;-93
2023/04/13 11:05:38;;;;;;;3.03;1.30;;;;;;;;;;4998463;28;20465;-92
2023/04/13 11:08:05;;;;;;;3.22;1.00;;;;;;;;;;4998245;28;20045;-92
2023/04/13 11:10:33;;;;;;;5.93;0.90;;;;;;;;;;5016081;28;20045;-92
2023/04/13 11:13:00;;;;;;;8.00;1.52;;;;;;;;;;5015165;28;20491;-90
2023/04/13 11:15:31;;;;;;;4.57;1.10;;;;;;;;;;4997638;28;20045;-91
2023/04/13 11:17:59;;;;;;;13.43;1.00;;;;;;;;;;4998033;28;20061;-88
2023/04/13 11:20:33;;;;;;;2.83;0.65;;;;;;;;;;5014841;28;20092;-90
2023/04/13 11:23:02;;;;;;;5.25;1.35;;;;;;;;;;5014160;28;20061;-89
2023/04/13 11:25:30;;;;;;;3.88;0.82;;;;;;;;;;4997407;28;20474;-90
2023/04/13 11:28:01;;;;;;;2.42;0.60;;;;;;;;;;4997520;28;20253;-89
2023/04/13 11:30:28;;;;;;;12.25;1.05;;;;;;;;;;4997715;28;20058;-88
2023/04/13 11:32:58;;;;;;;2.08;0.70;;;;;;;;;;4997565;28;20046;-90
2023/04/13 11:35:26;;;;;;;3.05;0.90;;;;;;;;;;4997353;28;20054;-88
2023/04/13 11:37:54;;;;;;;2.72;0.82;;;;;;;;;;5014788;28;20050;-89
2023/04/13 11:40:22;;;;;;;2.80;1.00;;;;;;;;;;5014463;28;20387;-91
2023/04/13 11:42:57;;;;;;;2.58;1.13;;;;;;;;;;5014651;28;20422;-91
2023/04/13 11:45:30;;;;;;;3.10;0.80;;;;;;;;;;5014341;28;20494;-91
2023/04/13 11:47:58;;;;;;;3.45;1.00;;;;;;;;;;4997173;28;20060;-89
2023/04/13 11:50:26;;;;;;;4.45;0.65;;;;;;;;;;5014278;28;20041;-90
2023/04/13 11:52:57;;;;;;;2.22;0.70;;;;;;;;;;4997356;28;20164;-90
2023/04/13 11:55:25;;;;;;;2.33;0.90;;;;;;;;;;4997086;28;20438;-91
2023/04/13 11:57:53;;;;;;;1.25;0.65;;;;;;;;;;4997096;28;20077;-89
2023/04/13 12:00:27;;;;;;;4.47;0.90;;;;;;;;;;4997181;28;20050;-91
2023/04/13 12:02:56;;;;;;;4.28;1.02;;;;;;;;;;4997165;28;20073;-91
2023/04/13 12:05:30;;;;;;;3.60;0.77;;;;;;;;;;5000429;28;20136;-94
2023/04/13 12:08:01;;;;;;;5.72;1.27;;;;;;;;;;4997922;28;20137;-92
2023/04/13 12:10:33;;;;;;;4.78;0.75;;;;;;;;;;4997683;28;20061;-92
2023/04/13 12:13:09;;;;;;;2.35;1.02;;;;;;;;;;4999210;28;20045;-91
2023/04/13 12:15:44;;;;;;;3.42;0.80;;;;;;;;;;4998025;28;20057;-92
2023/04/13 12:18:32;;;;;;;1.77;0.63;;;;;;;;;;4999928;28;20410;-92
2023/04/13 12:21:04;;;;;;;5.78;0.95;;;;;;;;;;4999215;28;20491;-90
2023/04/13 12:23:32;;;;;;;1.10;0.60;;;;;;;;;;4997615;28;20049;-93
2023/04/13 12:26:04;;;;;;;2.60;0.90;;;;;;;;;;4997765;28;20140;-91
2023/04/13 12:28:55;;;;;;;4.95;1.00;;;;;;;;;;4999967;28;20191;-92
2023/04/13 12:31:22;;;;;;;0.60;0.45;;;;;;;;;;4997158;28;20045;-89
2023/04/13 12:33:50;;;;;;;6.78;0.95;;;;;;;;;;4999210;28;20050;-90
2023/04/13 12:36:17;;;;;;;4.45;0.85;;;;;;;;;;5001088;28;20513;-93
2023/04/13 12:38:45;;;;;;;1.73;0.60;;;;;;;;;;5000957;28;20087;-92
2023/04/13 12:41:12;;;;;;;2.70;0.70;;;;;;;;;;5001524;28;20046;-92
2023/04/13 12:43:40;;;;;;;7.20;1.50;;;;;;;;;;5000734;28;20593;-91
2023/04/13 12:46:07;;;;;;;16.27;1.85;;;;;;;;;;5000812;28;20117;-91
2023/04/13 12:48:35;;;;;;;5.55;1.13;;;;;;;;;;5000651;28;20075;-93
2023/04/13 12:51:02;;;;;;;2.92;0.60;;;;;;;;;;5000834;28;20509;-92
2023/04/13 12:53:30;;;;;;;5.80;1.75;;;;;;;;;;5000448;28;20132;-94
2023/04/13 12:55:57;;;;;;;2.90;1.20;;;;;;;;;;5000649;28;20050;-92
2023/04/13 12:58:24;;;;;;;3.17;1.33;;;;;;;;;;5000259;28;20395;-91
2023/04/13 13:00:51;;;;;;;1.13;0.70;;;;;;;;;;5000419;28;20100;-90
2023/04/13 13:03:19;;;;;;;8.23;0.98;;;;;;;;;;5000039;28;20153;-91
2023/04/13 13:05:46;;;;;;;2.22;0.60;;;;;;;;;;4999895;28;20060;-89
2023/04/13 13:08:14;;;;;;;3.83;1.20;;;;;;;;;;5000079;28;20053;-91
2023/04/13 13:10:41;;;;;;;1.83;0.70;;;;;;;;;;5000043;28;20088;-92
2023/04/13 13:13:10;;;;;;;2.88;1.15;;;;;;;;;;5001254;28;20124;-92
2023/04/13 13:15:37;;;;;;;5.70;0.75;;;;;;;;;;5017070;28;20072;-89
2023/04/13 13:18:05;;;;;;;2.30;0.60;;;;;;;;;;5000122;28;20050;-91
2023/04/13 13:20:32;;;;;;;1.58;0.80;;;;;;;;;;4999576;28;20068;-91
2023/04/13 13:23:00;;;;;;;2.10;0.73;;;;;;;;;;4999771;28;20406;-90
2023/04/13 13:25:27;;;;;;;3.17;0.75;;;;;;;;;;5016710;28;20057;-91
2023/04/13 13:27:56;;;;;;;2.15;0.50;;;;;;;;;;4999651;28;20050;-91
2023/04/13 13:30:26;;;;;;;1.80;0.68;;;;;;;;;;5016366;28;20049;-91
2023/04/13 13:32:54;;;;;;;3.38;0.93;;;;;;;;;;4999559;28;20133;-90
2023/04/13 13:35:21;;;;;;;1.80;0.50;;;;;;;;;;5016846;28;20042;-91
2023/04/13 13:37:48;;;;;;;4.65;1.05;;;;;;;;;;4999416;28;20050;-92
2023/04/13 13:40:15;;;;;;;1.98;0.60;;;;;;;;;;5017231;28;20049;-91
2023/04/13 13:42:43;;;;;;;2.50;0.80;;;;;;;;;;5017374;28;20081;-91
2023/04/13 13:45:18;;;;;;;1.50;0.68;;;;;;;;;;4999662;28;20042;-92
2023/04/13 13:47:56;;;;;;;6.60;0.88;;;;;;;;;;4999481;28;20088;-92
2023/04/13 13:50:24;;;;;;;2.03;0.70;;;;;;;;;;4998698;28;20041;-86
2023/04/13 13:52:51;;;;;;;3.83;0.93;;;;;;;;;;4999067;28;20053;-88
2023/04/13 13:55:30;;;;;;;1.70;0.60;;;;;;;;;;5000875;28;20042;-90
2023/04/13 13:57:58;;;;;;;4.88;1.00;;;;;;;;;;4999048;28;20057;-90
2023/04/13 14:00:25;;;;;;;1.77;0.70;;;;;;;;;;4999351;28;20056;-91
2023/04/13 14:02:53;;;;;;;1.65;0.98;;;;;;;;;;4998792;28;20073;-92
2023/04/13 14:05:21;;;;;;;3.38;0.63;;;;;;;;;;4998913;28;20119;-93
2023/04/13 14:07:49;;;;;;;1.17;0.50;;;;;;;;;;4999151;28;20434;-92
2023/04/13 14:10:16;;;;;;;1.48;0.60;;;;;;;;;;5015825;28;20056;-91
2023/04/13 14:12:45;;;;;;;1.60;0.57;;;;;;;;;;4998507;28;20465;-92
2023/04/13 14:15:16;;;;;;;1.70;0.70;;;;;;;;;;5015961;28;20158;-91
2023/04/13 14:17:43;;;;;;;3.00;0.60;;;;;;;;;;4998674;28;20050;-92
2023/04/13 14:20:28;;;;;;;1.75;0.80;;;;;;;;;;5016687;28;20049;-90
2023/04/13 14:22:56;;;;;;;2.00;1.00;;;;;;;;;;4999289;28;20050;-90
2023/04/13 14:25:23;;;;;;;1.00;0.45;;;;;;;;;;5016778;28;20110;-90
2023/04/13 14:27:51;;;;;;;7.72;0.90;;;;;;;;;;4997813;28;20053;-88
2023/04/13 14:30:18;;;;;;;2.20;0.70;;;;;;;;;;5015302;28;20066;-90
2023/04/13 14:32:45;;;;;;;1.20;0.47;;;;;;;;;;5015693;28;20077;-89
2023/04/13 14:35:13;;;;;;;0.93;0.50;;;;;;;;;;4998087;28;20056;-90
2023/04/13 14:37:40;;;;;;;0.47;0.30;;;;;;;;;;5015242;28;20050;-90
2023/04/13 14:40:20;;;;;;;1.13;0.40;;;;;;;;;;4998010;28;20056;-90
2023/04/13 14:42:49;;;;;;;1.05;0.30;;;;;;;;;;4996842;28;20042;-89
2023/04/13 14:45:17;;;;;;;1.20;0.30;;;;;;;;;;4997944;28;20058;-89
2023/04/13 14:47:44;;;;;;;3.30;0.45;;;;;;;;;;4997963;28;20068;-90
2023/04/13 14:50:11;;;;;;;4.75;0.60;;;;;;;;;;4997915;28;20501;-91
2023/04/13 14:52:42;;;;;;;4.20;0.75;;;;;;;;;;4997850;28;20046;-90